sensor_id;sensor_type;location;lat;lon;timestamp;P1;durP1;ratioP1;P2;durP2;ratioP2
9270;SDS011;4673;53.458;9.940;2023-04-01T00:01:25;4.40;;;4.40;;
9270;SDS011;4673;53.458;9.940;2023-04-01T00:03:51;3.67;;;3.67;;
9270;SDS011;4673;53.458;9.940;2023-04-01T00:06:17;3.20;;;3.20;;
9270;SDS011;4673;53.458;9.940;2023-04-01T00:08:44;3.40;;;3.40;;
9270;SDS011;4673;53.458;9.940;2023-04-01T00:11:10;4.47;;;4.47;;
9270;SDS011;4673;53.458;9.940;2023-04-01T00:13:35;3.77;;;3.77;;
9270;SDS011;4673;53.458;9.940;2023-04-01T00:16:01;3.87;;;3.87;;
9270;SDS011;4673;53.458;9.940;2023-04-01T00:18:29;4.27;;;4.27;;
9270;SDS011;4673;53.458;9.940;2023-04-01T00:20:55;4.27;;;4.27;;
9270;SDS011;4673;53.458;9.940;2023-04-01T00:23:21;3.43;;;3.43;;
9270;SDS011;4673;53.458;9.940;2023-04-01T00:25:47;4.47;;;4.47;;
9270;SDS011;4673;53.458;9.940;2023-04-01T00:28:15;4.87;;;4.87;;
9270;SDS011;4673;53.458;9.940;2023-04-01T00:30:41;4.63;;;4.63;;
9270;SDS011;4673;53.458;9.940;2023-04-01T00:33:07;5.07;;;5.07;;
9270;SDS011;4673;53.458;9.940;2023-04-01T00:35:33;4.70;;;4.70;;
9270;SDS011;4673;53.458;9.940;2023-04-01T00:37:59;5.63;;;5.63;;
9270;SDS011;4673;53.458;9.940;2023-04-01T00:40:30;5.00;;;5.00;;
9270;SDS011;4673;53.458;9.940;2023-04-01T00:42:58;4.50;;;4.50;;
9270;SDS011;4673;53.458;9.940;2023-04-01T00:45:35;4.67;;;4.67;;
9270;SDS011;4673;53.458;9.940;2023-04-01T00:48:47;4.47;;;4.47;;
9270;SDS011;4673;53.458;9.940;2023-04-01T00:51:03;3.80;;;3.80;;
9270;SDS011;4673;53.458;9.940;2023-04-01T00:53:33;4.17;;;4.17;;
9270;SDS011;4673;53.458;9.940;2023-04-01T00:56:04;4.50;;;4.50;;
9270;SDS011;4673;53.458;9.940;2023-04-01T00:58:54;4.50;;;4.50;;
9270;SDS011;4673;53.458;9.940;2023-04-01T01:01:23;4.30;;;4.30;;
9270;SDS011;4673;53.458;9.940;2023-04-01T01:03:50;4.30;;;4.30;;
9270;SDS011;4673;53.458;9.940;2023-04-01T01:06:31;4.13;;;4.13;;
9270;SDS011;4673;53.458;9.940;2023-04-01T01:09:12;4.77;;;4.77;;
9270;SDS011;4673;53.458;9.940;2023-04-01T01:17:30;5.70;;;5.70;;
9270;SDS011;4673;53.458;9.940;2023-04-01T01:20:10;5.00;;;5.00;;
9270;SDS011;4673;53.458;9.940;2023-04-01T01:23:07;6.20;;;6.20;;
9270;SDS011;4673;53.458;9.940;2023-04-01T01:25:54;5.93;;;5.93;;
9270;SDS011;4673;53.458;9.940;2023-04-01T01:36:35;5.87;;;5.87;;
9270;SDS011;4673;53.458;9.940;2023-04-01T01:39:04;4.90;;;4.90;;
9270;SDS011;4673;53.458;9.940;2023-04-01T01:41:32;5.63;;;5.63;;
9270;SDS011;4673;53.458;9.940;2023-04-01T01:44:00;5.60;;;5.60;;
9270;SDS011;4673;53.458;9.940;2023-04-01T01:46:30;5.07;;;5.07;;
9270;SDS011;4673;53.458;9.940;2023-04-01T01:48:56;5.10;;;5.10;;
9270;SDS011;4673;53.458;9.940;2023-04-01T01:51:25;5.03;;;5.03;;
9270;SDS011;4673;53.458;9.940;2023-04-01T01:53:52;5.67;;;5.67;;
9270;SDS011;4673;53.458;9.940;2023-04-01T01:56:18;5.37;;;5.37;;
9270;SDS011;4673;53.458;9.940;2023-04-01T01:58:48;6.07;;;6.07;;
9270;SDS011;4673;53.458;9.940;2023-04-01T02:01:26;5.10;;;5.10;;
9270;SDS011;4673;53.458;9.940;2023-04-01T02:03:54;5.10;;;5.10;;
9270;SDS011;4673;53.458;9.940;2023-04-01T02:06:23;4.90;;;4.90;;
9270;SDS011;4673;53.458;9.940;2023-04-01T02:08:51;4.60;;;4.60;;
9270;SDS011;4673;53.458;9.940;2023-04-01T02:11:32;5.10;;;5.10;;
9270;SDS011;4673;53.458;9.940;2023-04-01T02:16:40;5.33;;;5.33;;
9270;SDS011;4673;53.458;9.940;2023-04-01T02:19:20;5.20;;;5.20;;
9270;SDS011;4673;53.458;9.940;2023-04-01T02:21:51;4.87;;;4.87;;
9270;SDS011;4673;53.458;9.940;2023-04-01T02:24:21;4.77;;;4.77;;
9270;SDS011;4673;53.458;9.940;2023-04-01T02:26:51;4.60;;;4.60;;
9270;SDS011;4673;53.458;9.940;2023-04-01T02:29:21;5.30;;;5.30;;
9270;SDS011;4673;53.458;9.940;2023-04-01T02:31:48;5.57;;;5.57;;
9270;SDS011;4673;53.458;9.940;2023-04-01T02:34:15;5.47;;;5.47;;
9270;SDS011;4673;53.458;9.940;2023-04-01T02:36:41;4.67;;;4.67;;
9270;SDS011;4673;53.458;9.940;2023-04-01T02:39:07;5.30;;;5.30;;
9270;SDS011;4673;53.458;9.940;2023-04-01T02:41:38;4.90;;;4.90;;
9270;SDS011;4673;53.458;9.940;2023-04-01T02:44:06;5.20;;;5.20;;
9270;SDS011;4673;53.458;9.940;2023-04-01T02:46:33;4.80;;;4.80;;
9270;SDS011;4673;53.458;9.940;2023-04-01T02:48:58;5.07;;;5.07;;
9270;SDS011;4673;53.458;9.940;2023-04-01T02:51:25;5.00;;;5.00;;
9270;SDS011;4673;53.458;9.940;2023-04-01T02:53:51;4.60;;;4.60;;
9270;SDS011;4673;53.458;9.940;2023-04-01T02:56:16;5.03;;;5.03;;
9270;SDS011;4673;53.458;9.940;2023-04-01T02:58:42;4.87;;;4.87;;
9270;SDS011;4673;53.458;9.940;2023-04-01T03:01:08;5.17;;;5.17;;
9270;SDS011;4673;53.458;9.940;2023-04-01T03:03:33;5.40;;;5.40;;
9270;SDS011;4673;53.458;9.940;2023-04-01T03:06:04;5.23;;;5.23;;
9270;SDS011;4673;53.458;9.940;2023-04-01T03:08:33;5.80;;;5.80;;
9270;SDS011;4673;53.458;9.940;2023-04-01T03:10:59;5.57;;;5.57;;
9270;SDS011;4673;53.458;9.940;2023-04-01T03:13:25;5.20;;;5.20;;
9270;SDS011;4673;53.458;9.940;2023-04-01T03:15:51;6.50;;;6.50;;
9270;SDS011;4673;53.458;9.940;2023-04-01T03:18:16;5.67;;;5.67;;
9270;SDS011;4673;53.458;9.940;2023-04-01T03:20:42;5.13;;;5.13;;
9270;SDS011;4673;53.458;9.940;2023-04-01T03:23:08;6.70;;;6.70;;
9270;SDS011;4673;53.458;9.940;2023-04-01T03:25:33;6.70;;;6.70;;
9270;SDS011;4673;53.458;9.940;2023-04-01T03:27:59;6.73;;;6.73;;
9270;SDS011;4673;53.458;9.940;2023-04-01T03:30:25;6.63;;;6.63;;
9270;SDS011;4673;53.458;9.940;2023-04-01T03:32:51;7.67;;;7.67;;
9270;SDS011;4673;53.458;9.940;2023-04-01T03:35:17;7.63;;;7.53;;
9270;SDS011;4673;53.458;9.940;2023-04-01T03:37:43;6.67;;;6.67;;
9270;SDS011;4673;53.458;9.940;2023-04-01T03:40:09;6.30;;;6.30;;
9270;SDS011;4673;53.458;9.940;2023-04-01T03:42:35;6.43;;;6.43;;
9270;SDS011;4673;53.458;9.940;2023-04-01T03:45:02;6.23;;;6.23;;
9270;SDS011;4673;53.458;9.940;2023-04-01T03:47:28;6.60;;;6.57;;
9270;SDS011;4673;53.458;9.940;2023-04-01T03:49:54;6.67;;;6.67;;
9270;SDS011;4673;53.458;9.940;2023-04-01T03:52:20;7.93;;;7.93;;
9270;SDS011;4673;53.458;9.940;2023-04-01T03:54:46;6.27;;;6.27;;
9270;SDS011;4673;53.458;9.940;2023-04-01T03:57:11;7.47;;;7.47;;
9270;SDS011;4673;53.458;9.940;2023-04-01T03:59:37;7.03;;;7.03;;
9270;SDS011;4673;53.458;9.940;2023-04-01T04:02:03;6.50;;;6.50;;
9270;SDS011;4673;53.458;9.940;2023-04-01T04:04:28;6.30;;;6.30;;
9270;SDS011;4673;53.458;9.940;2023-04-01T04:06:55;6.30;;;6.30;;
9270;SDS011;4673;53.458;9.940;2023-04-01T04:09:21;6.63;;;6.63;;
9270;SDS011;4673;53.458;9.940;2023-04-01T04:11:46;6.80;;;6.80;;
9270;SDS011;4673;53.458;9.940;2023-04-01T04:14:12;6.20;;;6.20;;
9270;SDS011;4673;53.458;9.940;2023-04-01T04:16:38;7.37;;;7.37;;
9270;SDS011;4673;53.458;9.940;2023-04-01T04:19:04;6.80;;;6.80;;
9270;SDS011;4673;53.458;9.940;2023-04-01T04:21:30;7.00;;;7.00;;
9270;SDS011;4673;53.458;9.940;2023-04-01T04:23:55;6.67;;;6.67;;
9270;SDS011;4673;53.458;9.940;2023-04-01T04:26:21;7.00;;;6.90;;
9270;SDS011;4673;53.458;9.940;2023-04-01T04:28:47;7.60;;;7.50;;
9270;SDS011;4673;53.458;9.940;2023-04-01T04:31:17;6.97;;;6.97;;
9270;SDS011;4673;53.458;9.940;2023-04-01T04:33:44;7.00;;;7.00;;
9270;SDS011;4673;53.458;9.940;2023-04-01T04:36:10;7.57;;;7.57;;
9270;SDS011;4673;53.458;9.940;2023-04-01T04:38:36;8.27;;;8.27;;
9270;SDS011;4673;53.458;9.940;2023-04-01T04:41:01;7.20;;;7.20;;
9270;SDS011;4673;53.458;9.940;2023-04-01T04:43:27;7.07;;;7.07;;
9270;SDS011;4673;53.458;9.940;2023-04-01T04:45:53;7.80;;;7.80;;
9270;SDS011;4673;53.458;9.940;2023-04-01T04:48:19;7.90;;;7.90;;
9270;SDS011;4673;53.458;9.940;2023-04-01T04:50:48;7.93;;;7.83;;
9270;SDS011;4673;53.458;9.940;2023-04-01T04:53:15;7.40;;;7.37;;
9270;SDS011;4673;53.458;9.940;2023-04-01T04:55:51;6.67;;;6.67;;
9270;SDS011;4673;53.458;9.940;2023-04-01T04:58:17;6.97;;;6.97;;
9270;SDS011;4673;53.458;9.940;2023-04-01T05:00:43;6.87;;;6.87;;
9270;SDS011;4673;53.458;9.940;2023-04-01T05:03:09;6.07;;;6.07;;
9270;SDS011;4673;53.458;9.940;2023-04-01T05:05:36;7.17;;;7.17;;
9270;SDS011;4673;53.458;9.940;2023-04-01T05:08:01;7.47;;;7.47;;
9270;SDS011;4673;53.458;9.940;2023-04-01T05:10:27;6.83;;;6.83;;
9270;SDS011;4673;53.458;9.940;2023-04-01T05:12:53;7.13;;;7.13;;
9270;SDS011;4673;53.458;9.940;2023-04-01T05:15:18;7.43;;;7.43;;
9270;SDS011;4673;53.458;9.940;2023-04-01T05:17:44;7.30;;;7.30;;
9270;SDS011;4673;53.458;9.940;2023-04-01T05:20:11;7.60;;;7.60;;
9270;SDS011;4673;53.458;9.940;2023-04-01T05:22:38;6.47;;;6.47;;
9270;SDS011;4673;53.458;9.940;2023-04-01T05:25:04;7.80;;;7.80;;
9270;SDS011;4673;53.458;9.940;2023-04-01T05:27:30;6.60;;;6.60;;
9270;SDS011;4673;53.458;9.940;2023-04-01T05:29:56;6.97;;;6.97;;
9270;SDS011;4673;53.458;9.940;2023-04-01T05:32:22;7.63;;;7.63;;
9270;SDS011;4673;53.458;9.940;2023-04-01T05:34:51;7.37;;;7.37;;
9270;SDS011;4673;53.458;9.940;2023-04-01T05:37:17;7.73;;;7.73;;
9270;SDS011;4673;53.458;9.940;2023-04-01T05:39:42;7.40;;;7.40;;
9270;SDS011;4673;53.458;9.940;2023-04-01T05:42:08;6.90;;;6.90;;
9270;SDS011;4673;53.458;9.940;2023-04-01T05:44:34;7.10;;;7.10;;
9270;SDS011;4673;53.458;9.940;2023-04-01T05:47:00;5.83;;;5.83;;
9270;SDS011;4673;53.458;9.940;2023-04-01T05:49:26;5.93;;;5.93;;
9270;SDS011;4673;53.458;9.940;2023-04-01T05:51:52;5.90;;;5.90;;
9270;SDS011;4673;53.458;9.940;2023-04-01T05:54:18;6.07;;;6.07;;
9270;SDS011;4673;53.458;9.940;2023-04-01T05:56:44;6.47;;;6.47;;
9270;SDS011;4673;53.458;9.940;2023-04-01T05:59:10;5.60;;;5.60;;
9270;SDS011;4673;53.458;9.940;2023-04-01T06:01:36;5.87;;;5.87;;
9270;SDS011;4673;53.458;9.940;2023-04-01T06:04:02;6.30;;;6.30;;
9270;SDS011;4673;53.458;9.940;2023-04-01T06:06:29;6.13;;;6.13;;
9270;SDS011;4673;53.458;9.940;2023-04-01T06:08:57;5.73;;;5.73;;
9270;SDS011;4673;53.458;9.940;2023-04-01T06:14:34;5.83;;;5.83;;
9270;SDS011;4673;53.458;9.940;2023-04-01T06:17:18;6.40;;;6.40;;
9270;SDS011;4673;53.458;9.940;2023-04-01T06:19:57;6.13;;;6.13;;
9270;SDS011;4673;53.458;9.940;2023-04-01T06:39:06;0.90;;;0.90;;
9270;SDS011;4673;53.458;9.940;2023-04-01T06:42:18;0.90;;;0.90;;
9270;SDS011;4673;53.458;9.940;2023-04-01T06:45:09;0.83;;;0.83;;
9270;SDS011;4673;53.458;9.940;2023-04-01T06:53:17;1.10;;;1.10;;
9270;SDS011;4673;53.458;9.940;2023-04-01T06:56:06;0.87;;;0.87;;
9270;SDS011;4673;53.458;9.940;2023-04-01T06:58:40;0.83;;;0.83;;
9270;SDS011;4673;53.458;9.940;2023-04-01T07:01:08;0.97;;;0.97;;
9270;SDS011;4673;53.458;9.940;2023-04-01T07:03:47;1.20;;;1.20;;
9270;SDS011;4673;53.458;9.940;2023-04-01T07:09:39;1.10;;;1.10;;
9270;SDS011;4673;53.458;9.940;2023-04-01T07:12:22;1.00;;;1.00;;
9270;SDS011;4673;53.458;9.940;2023-04-01T07:15:25;0.80;;;0.80;;
9270;SDS011;4673;53.458;9.940;2023-04-01T07:18:05;0.87;;;0.87;;
9270;SDS011;4673;53.458;9.940;2023-04-01T07:20:44;0.93;;;0.93;;
9270;SDS011;4673;53.458;9.940;2023-04-01T07:23:22;1.00;;;1.00;;
9270;SDS011;4673;53.458;9.940;2023-04-01T07:25:52;1.20;;;1.20;;
9270;SDS011;4673;53.458;9.940;2023-04-01T07:28:23;1.00;;;1.00;;
9270;SDS011;4673;53.458;9.940;2023-04-01T07:33:35;1.20;;;1.20;;
9270;SDS011;4673;53.458;9.940;2023-04-01T07:36:08;1.10;;;1.10;;
9270;SDS011;4673;53.458;9.940;2023-04-01T07:38:55;1.30;;;1.30;;
9270;SDS011;4673;53.458;9.940;2023-04-01T07:46:56;1.00;;;1.00;;
9270;SDS011;4673;53.458;9.940;2023-04-01T07:49:46;1.10;;;1.10;;
9270;SDS011;4673;53.458;9.940;2023-04-01T08:00:33;0.80;;;0.80;;
9270;SDS011;4673;53.458;9.940;2023-04-01T08:03:21;0.90;;;0.90;;
9270;SDS011;4673;53.458;9.940;2023-04-01T08:08:38;0.80;;;0.80;;
9270;SDS011;4673;53.458;9.940;2023-04-01T08:17:28;1.00;;;1.00;;
9270;SDS011;4673;53.458;9.940;2023-04-01T08:20:03;0.90;;;0.90;;
9270;SDS011;4673;53.458;9.940;2023-04-01T08:22:57;0.93;;;0.93;;
9270;SDS011;4673;53.458;9.940;2023-04-01T08:25:34;0.80;;;0.80;;
9270;SDS011;4673;53.458;9.940;2023-04-01T08:30:44;0.77;;;0.77;;
9270;SDS011;4673;53.458;9.940;2023-04-01T08:33:28;0.90;;;0.90;;
9270;SDS011;4673;53.458;9.940;2023-04-01T08:36:12;0.80;;;0.80;;
9270;SDS011;4673;53.458;9.940;2023-04-01T08:38:43;0.90;;;0.90;;
9270;SDS011;4673;53.458;9.940;2023-04-01T08:53:00;0.77;;;0.77;;
9270;SDS011;4673;53.458;9.940;2023-04-01T08:58:30;0.90;;;0.90;;
9270;SDS011;4673;53.458;9.940;2023-04-01T09:06:48;0.70;;;0.70;;
9270;SDS011;4673;53.458;9.940;2023-04-01T09:09:29;0.70;;;0.70;;
9270;SDS011;4673;53.458;9.940;2023-04-01T09:12:35;0.67;;;0.67;;
9270;SDS011;4673;53.458;9.940;2023-04-01T09:40:50;0.90;;;0.90;;
9270;SDS011;4673;53.458;9.940;2023-04-01T09:46:19;1.00;;;1.00;;
9270;SDS011;4673;53.458;9.940;2023-04-01T09:56:49;0.90;;;0.90;;
9270;SDS011;4673;53.458;9.940;2023-04-01T10:02:17;1.07;;;1.07;;
9270;SDS011;4673;53.458;9.940;2023-04-01T11:19:49;0.93;;;0.93;;
9270;SDS011;4673;53.458;9.940;2023-04-01T11:27:56;0.70;;;0.70;;
9270;SDS011;4673;53.458;9.940;2023-04-01T11:33:44;1.07;;;1.07;;
9270;SDS011;4673;53.458;9.940;2023-04-01T11:44:30;1.00;;;1.00;;
9270;SDS011;4673;53.458;9.940;2023-04-01T11:53:02;0.90;;;0.90;;
9270;SDS011;4673;53.458;9.940;2023-04-01T11:55:43;0.93;;;0.93;;
9270;SDS011;4673;53.458;9.940;2023-04-01T12:29:06;1.60;;;1.60;;
9270;SDS011;4673;53.458;9.940;2023-04-01T12:31:58;1.80;;;1.80;;
9270;SDS011;4673;53.458;9.940;2023-04-01T12:35:21;2.20;;;2.20;;
9270;SDS011;4673;53.458;9.940;2023-04-01T12:57:14;2.10;;;2.10;;
9270;SDS011;4673;53.458;9.940;2023-04-01T13:08:43;1.80;;;1.80;;
9270;SDS011;4673;53.458;9.940;2023-04-01T13:22:16;1.93;;;1.93;;
9270;SDS011;4673;53.458;9.940;2023-04-01T13:27:34;2.30;;;2.30;;
9270;SDS011;4673;53.458;9.940;2023-04-01T13:35:46;2.07;;;2.07;;
9270;SDS011;4673;53.458;9.940;2023-04-01T13:46:38;2.10;;;2.10;;
9270;SDS011;4673;53.458;9.940;2023-04-01T13:57:29;2.20;;;2.20;;
9270;SDS011;4673;53.458;9.940;2023-04-01T14:13:47;2.27;;;2.27;;
9270;SDS011;4673;53.458;9.940;2023-04-01T14:19:06;2.20;;;2.20;;
9270;SDS011;4673;53.458;9.940;2023-04-01T14:27:12;2.23;;;2.23;;
9270;SDS011;4673;53.458;9.940;2023-04-01T14:57:04;3.47;;;3.47;;
9270;SDS011;4673;53.458;9.940;2023-04-01T15:01:47;2.67;;;2.67;;
9270;SDS011;4673;53.458;9.940;2023-04-01T15:07:01;2.90;;;2.90;;
9270;SDS011;4673;53.458;9.940;2023-04-01T15:09:54;3.07;;;3.07;;
9270;SDS011;4673;53.458;9.940;2023-04-01T15:29:01;4.13;;;4.13;;
9270;SDS011;4673;53.458;9.940;2023-04-01T15:31:40;3.30;;;3.30;;
9270;SDS011;4673;53.458;9.940;2023-04-01T15:43:36;3.40;;;3.40;;
9270;SDS011;4673;53.458;9.940;2023-04-01T16:00:49;3.30;;;3.30;;
9270;SDS011;4673;53.458;9.940;2023-04-01T16:03:37;3.23;;;3.23;;
9270;SDS011;4673;53.458;9.940;2023-04-01T16:09:13;3.40;;;3.40;;
9270;SDS011;4673;53.458;9.940;2023-04-01T16:12:06;3.70;;;3.70;;
9270;SDS011;4673;53.458;9.940;2023-04-01T16:20:42;3.43;;;3.43;;
9270;SDS011;4673;53.458;9.940;2023-04-01T16:36:53;4.77;;;4.77;;
9270;SDS011;4673;53.458;9.940;2023-04-01T16:47:45;4.57;;;4.57;;
9270;SDS011;4673;53.458;9.940;2023-04-01T16:55:46;4.90;;;4.90;;
9270;SDS011;4673;53.458;9.940;2023-04-01T16:58:38;4.13;;;4.13;;
9270;SDS011;4673;53.458;9.940;2023-04-01T17:01:08;4.43;;;4.43;;
9270;SDS011;4673;53.458;9.940;2023-04-01T17:03:45;5.17;;;5.17;;
9270;SDS011;4673;53.458;9.940;2023-04-01T17:14:09;5.23;;;5.23;;
9270;SDS011;4673;53.458;9.940;2023-04-01T17:16:45;6.07;;;6.07;;
9270;SDS011;4673;53.458;9.940;2023-04-01T17:25:31;5.37;;;5.37;;
9270;SDS011;4673;53.458;9.940;2023-04-01T17:28:21;5.00;;;5.00;;
9270;SDS011;4673;53.458;9.940;2023-04-01T17:31:02;5.97;;;5.97;;
9270;SDS011;4673;53.458;9.940;2023-04-01T17:41:57;5.03;;;5.03;;
9270;SDS011;4673;53.458;9.940;2023-04-01T17:44:53;4.93;;;4.93;;
9270;SDS011;4673;53.458;9.940;2023-04-01T17:47:41;6.00;;;6.00;;
9270;SDS011;4673;53.458;9.940;2023-04-01T18:07:29;4.20;;;4.20;;
9270;SDS011;4673;53.458;9.940;2023-04-01T18:18:11;3.73;;;3.73;;
9270;SDS011;4673;53.458;9.940;2023-04-01T18:23:45;4.90;;;4.90;;
9270;SDS011;4673;53.458;9.940;2023-04-01T18:26:23;4.83;;;4.83;;
9270;SDS011;4673;53.458;9.940;2023-04-01T18:28:59;5.23;;;5.23;;
9270;SDS011;4673;53.458;9.940;2023-04-01T18:31:45;4.80;;;4.80;;
9270;SDS011;4673;53.458;9.940;2023-04-01T18:34:17;3.90;;;3.90;;
9270;SDS011;4673;53.458;9.940;2023-04-01T18:39:53;3.50;;;3.50;;
9270;SDS011;4673;53.458;9.940;2023-04-01T18:42:41;4.20;;;4.20;;
9270;SDS011;4673;53.458;9.940;2023-04-01T18:45:51;3.67;;;3.67;;
9270;SDS011;4673;53.458;9.940;2023-04-01T18:54:05;3.37;;;3.37;;
9270;SDS011;4673;53.458;9.940;2023-04-01T18:56:37;3.13;;;3.13;;
9270;SDS011;4673;53.458;9.940;2023-04-01T18:59:05;3.70;;;3.70;;
9270;SDS011;4673;53.458;9.940;2023-04-01T19:01:57;3.00;;;3.00;;
9270;SDS011;4673;53.458;9.940;2023-04-01T19:04:31;3.37;;;3.37;;
9270;SDS011;4673;53.458;9.940;2023-04-01T19:09:48;2.90;;;2.90;;
9270;SDS011;4673;53.458;9.940;2023-04-01T19:15:14;3.87;;;3.87;;
9270;SDS011;4673;53.458;9.940;2023-04-01T19:18:26;3.37;;;3.37;;
9270;SDS011;4673;53.458;9.940;2023-04-01T19:21:14;3.20;;;3.20;;
9270;SDS011;4673;53.458;9.940;2023-04-01T19:26:56;3.20;;;3.20;;
9270;SDS011;4673;53.458;9.940;2023-04-01T19:29:53;3.27;;;3.27;;
9270;SDS011;4673;53.458;9.940;2023-04-01T19:35:17;2.47;;;2.47;;
9270;SDS011;4673;53.458;9.940;2023-04-01T19:37:47;2.90;;;2.90;;
9270;SDS011;4673;53.458;9.940;2023-04-01T19:45:45;2.10;;;2.10;;
9270;SDS011;4673;53.458;9.940;2023-04-01T20:00:02;2.33;;;2.33;;
9270;SDS011;4673;53.458;9.940;2023-04-01T20:05:44;2.90;;;2.90;;
9270;SDS011;4673;53.458;9.940;2023-04-01T20:08:26;2.67;;;2.67;;
9270;SDS011;4673;53.458;9.940;2023-04-01T20:11:06;2.93;;;2.93;;
9270;SDS011;4673;53.458;9.940;2023-04-01T20:13:48;2.30;;;2.30;;
9270;SDS011;4673;53.458;9.940;2023-04-01T20:16:53;2.03;;;2.03;;
9270;SDS011;4673;53.458;9.940;2023-04-01T20:22:59;2.23;;;2.23;;
9270;SDS011;4673;53.458;9.940;2023-04-01T20:27:47;2.37;;;2.37;;
9270;SDS011;4673;53.458;9.940;2023-04-01T20:50:21;2.17;;;2.17;;
9270;SDS011;4673;53.458;9.940;2023-04-01T20:55:30;2.37;;;2.37;;
9270;SDS011;4673;53.458;9.940;2023-04-01T21:01:15;2.50;;;2.50;;
9270;SDS011;4673;53.458;9.940;2023-04-01T21:04:04;2.20;;;2.20;;
9270;SDS011;4673;53.458;9.940;2023-04-01T21:09:55;2.13;;;2.13;;
9270;SDS011;4673;53.458;9.940;2023-04-01T21:15:26;1.90;;;1.90;;
9270;SDS011;4673;53.458;9.940;2023-04-01T21:20:48;2.80;;;2.80;;
9270;SDS011;4673;53.458;9.940;2023-04-01T21:26:27;2.50;;;2.50;;
9270;SDS011;4673;53.458;9.940;2023-04-01T21:32:09;2.53;;;2.53;;
9270;SDS011;4673;53.458;9.940;2023-04-01T21:34:43;1.87;;;1.87;;
9270;SDS011;4673;53.458;9.940;2023-04-01T21:51:26;1.93;;;1.93;;
9270;SDS011;4673;53.458;9.940;2023-04-01T22:00:17;1.93;;;1.93;;
9270;SDS011;4673;53.458;9.940;2023-04-01T22:25:18;2.03;;;2.03;;
9270;SDS011;4673;53.458;9.940;2023-04-01T22:27:58;2.10;;;2.10;;
9270;SDS011;4673;53.458;9.940;2023-04-01T22:30:40;2.13;;;2.13;;
9270;SDS011;4673;53.458;9.940;2023-04-01T22:41:28;2.13;;;2.13;;
9270;SDS011;4673;53.458;9.940;2023-04-01T22:43:58;1.73;;;1.73;;
9270;SDS011;4673;53.458;9.940;2023-04-01T22:51:55;1.73;;;1.73;;
9270;SDS011;4673;53.458;9.940;2023-04-01T22:54:29;2.40;;;2.40;;
9270;SDS011;4673;53.458;9.940;2023-04-01T22:57:12;2.47;;;2.47;;
9270;SDS011;4673;53.458;9.940;2023-04-01T23:00:03;1.77;;;1.77;;
9270;SDS011;4673;53.458;9.940;2023-04-01T23:02:37;1.73;;;1.73;;
9270;SDS011;4673;53.458;9.940;2023-04-01T23:05:09;2.03;;;2.03;;
9270;SDS011;4673;53.458;9.940;2023-04-01T23:10:38;1.90;;;1.90;;
9270;SDS011;4673;53.458;9.940;2023-04-01T23:13:12;2.20;;;2.20;;
9270;SDS011;4673;53.458;9.940;2023-04-01T23:15:45;1.77;;;1.77;;
9270;SDS011;4673;53.458;9.940;2023-04-01T23:18:17;2.40;;;2.40;;
9270;SDS011;4673;53.458;9.940;2023-04-01T23:28:57;2.27;;;2.27;;
9270;SDS011;4673;53.458;9.940;2023-04-01T23:31:31;2.80;;;2.80;;
9270;SDS011;4673;53.458;9.940;2023-04-01T23:36:29;2.03;;;2.03;;
9270;SDS011;4673;53.458;9.940;2023-04-01T23:39:03;2.20;;;2.20;;
9270;SDS011;4673;53.458;9.940;2023-04-01T23:41:46;1.83;;;1.83;;
9270;SDS011;4673;53.458;9.940;2023-04-01T23:44:12;1.70;;;1.70;;
9270;SDS011;4673;53.458;9.940;2023-04-01T23:46:39;1.90;;;1.90;;
9270;SDS011;4673;53.458;9.940;2023-04-01T23:49:14;2.13;;;2.13;;
9270;SDS011;4673;53.458;9.940;2023-04-01T23:51:49;1.73;;;1.73;;
9270;SDS011;4673;53.458;9.940;2023-04-01T23:54:43;2.10;;;2.10;;
9270;SDS011;4673;53.458;9.940;2023-04-01T23:57:14;1.83;;;1.83;;
9270;SDS011;4673;53.458;9.940;2023-04-01T23:59:58;1.57;;;1.57;;
